Hallam, Nebraska
Current Conditions -  °F | °C
As of 10:15 AM on Monday 26 Jan 2015 (Local Time) from KBIE Reporting Station
Clear Clear  
Wind Chill: 39°   Ceiling: Unl
Heat Index: 44°   Visibility: 10mi
Dew Point: 33°   Wind: 9mph
Humidity: 67%   Direction: 290°WNW
Pressure: 29.94"   Gusts: NA
Location:  40.54°N, 96.79°W
Report Text: KBIE 261615Z AUTO 29008KT 10SM CLR 07/01 A2994 RMK AO2 T00650008
Loading
Personal Weather Stations






























Interactive Weather Map New forecast layout! Learn more

10-Day Weather Forecast

Advertisements
Track Severe Weather on mobile